sensor_id;sensor_type;location;lat;lon;timestamp;P1;durP1;ratioP1;P2;durP2;ratioP2
38123;SDS011;23934;47.998;9.832;2023-07-22T00:02:17;0.05;;;0.05;;
38123;SDS011;23934;47.998;9.832;2023-07-22T00:04:43;0.00;;;0.00;;
38123;SDS011;23934;47.998;9.832;2023-07-22T00:07:09;0.10;;;0.10;;
38123;SDS011;23934;47.998;9.832;2023-07-22T00:09:35;0.30;;;0.30;;
38123;SDS011;23934;47.998;9.832;2023-07-22T00:12:01;0.00;;;0.00;;
38123;SDS011;23934;47.998;9.832;2023-07-22T00:14:27;1.02;;;0.85;;
38123;SDS011;23934;47.998;9.832;2023-07-22T00:16:52;0.00;;;0.00;;
38123;SDS011;23934;47.998;9.832;2023-07-22T00:19:18;0.05;;;0.05;;
38123;SDS011;23934;47.998;9.832;2023-07-22T00:21:44;0.10;;;0.10;;
38123;SDS011;23934;47.998;9.832;2023-07-22T00:24:10;0.38;;;0.38;;
38123;SDS011;23934;47.998;9.832;2023-07-22T00:26:36;0.00;;;0.00;;
38123;SDS011;23934;47.998;9.832;2023-07-22T00:29:02;0.00;;;0.00;;
38123;SDS011;23934;47.998;9.832;2023-07-22T00:31:29;0.00;;;0.00;;
38123;SDS011;23934;47.998;9.832;2023-07-22T00:33:56;0.10;;;0.10;;
38123;SDS011;23934;47.998;9.832;2023-07-22T00:36:22;0.60;;;0.60;;
38123;SDS011;23934;47.998;9.832;2023-07-22T00:38:48;0.00;;;0.00;;
38123;SDS011;23934;47.998;9.832;2023-07-22T00:41:14;0.00;;;0.00;;
38123;SDS011;23934;47.998;9.832;2023-07-22T00:43:40;0.00;;;0.00;;
38123;SDS011;23934;47.998;9.832;2023-07-22T00:46:06;0.10;;;0.10;;
38123;SDS011;23934;47.998;9.832;2023-07-22T00:48:32;0.00;;;0.00;;
38123;SDS011;23934;47.998;9.832;2023-07-22T00:50:58;1.23;;;0.65;;
38123;SDS011;23934;47.998;9.832;2023-07-22T00:53:24;0.00;;;0.00;;
38123;SDS011;23934;47.998;9.832;2023-07-22T00:55:50;0.20;;;0.20;;
38123;SDS011;23934;47.998;9.832;2023-07-22T00:58:16;28.65;;;3.72;;
38123;SDS011;23934;47.998;9.832;2023-07-22T01:00:42;0.00;;;0.00;;
38123;SDS011;23934;47.998;9.832;2023-07-22T01:03:08;0.52;;;0.52;;
38123;SDS011;23934;47.998;9.832;2023-07-22T01:05:34;0.00;;;0.00;;
38123;SDS011;23934;47.998;9.832;2023-07-22T01:08:02;0.00;;;0.00;;
38123;SDS011;23934;47.998;9.832;2023-07-22T01:10:28;0.00;;;0.00;;
38123;SDS011;23934;47.998;9.832;2023-07-22T01:12:55;0.00;;;0.00;;
38123;SDS011;23934;47.998;9.832;2023-07-22T01:15:22;0.10;;;0.10;;
38123;SDS011;23934;47.998;9.832;2023-07-22T01:17:48;0.22;;;0.22;;
38123;SDS011;23934;47.998;9.832;2023-07-22T01:20:15;0.55;;;0.55;;
38123;SDS011;23934;47.998;9.832;2023-07-22T01:22:49;0.80;;;0.80;;
38123;SDS011;23934;47.998;9.832;2023-07-22T01:25:16;0.28;;;0.28;;
38123;SDS011;23934;47.998;9.832;2023-07-22T01:27:42;0.00;;;0.00;;
38123;SDS011;23934;47.998;9.832;2023-07-22T01:30:09;0.00;;;0.00;;
38123;SDS011;23934;47.998;9.832;2023-07-22T01:32:35;0.00;;;0.00;;
38123;SDS011;23934;47.998;9.832;2023-07-22T01:35:01;0.20;;;0.20;;
38123;SDS011;23934;47.998;9.832;2023-07-22T01:37:27;0.30;;;0.22;;
38123;SDS011;23934;47.998;9.832;2023-07-22T01:39:53;0.55;;;0.55;;
38123;SDS011;23934;47.998;9.832;2023-07-22T01:42:22;0.00;;;0.00;;
38123;SDS011;23934;47.998;9.832;2023-07-22T01:44:48;0.00;;;0.00;;
38123;SDS011;23934;47.998;9.832;2023-07-22T01:47:14;0.22;;;0.22;;
38123;SDS011;23934;47.998;9.832;2023-07-22T01:49:40;0.00;;;0.00;;
38123;SDS011;23934;47.998;9.832;2023-07-22T01:52:06;0.00;;;0.00;;
38123;SDS011;23934;47.998;9.832;2023-07-22T01:54:32;0.00;;;0.00;;
38123;SDS011;23934;47.998;9.832;2023-07-22T01:56:58;0.25;;;0.25;;
38123;SDS011;23934;47.998;9.832;2023-07-22T01:59:24;0.00;;;0.00;;
38123;SDS011;23934;47.998;9.832;2023-07-22T02:01:50;0.00;;;0.00;;
38123;SDS011;23934;47.998;9.832;2023-07-22T02:04:16;0.00;;;0.00;;
38123;SDS011;23934;47.998;9.832;2023-07-22T02:06:42;4.13;;;1.17;;
38123;SDS011;23934;47.998;9.832;2023-07-22T02:09:09;0.05;;;0.05;;
38123;SDS011;23934;47.998;9.832;2023-07-22T02:11:38;0.00;;;0.00;;
38123;SDS011;23934;47.998;9.832;2023-07-22T02:14:04;0.20;;;0.20;;
38123;SDS011;23934;47.998;9.832;2023-07-22T02:16:32;0.00;;;0.00;;
38123;SDS011;23934;47.998;9.832;2023-07-22T02:18:57;0.00;;;0.00;;
38123;SDS011;23934;47.998;9.832;2023-07-22T02:21:23;1.95;;;1.45;;
38123;SDS011;23934;47.998;9.832;2023-07-22T02:23:49;0.20;;;0.20;;
38123;SDS011;23934;47.998;9.832;2023-07-22T02:26:15;0.35;;;0.32;;
38123;SDS011;23934;47.998;9.832;2023-07-22T02:28:41;0.28;;;0.28;;
38123;SDS011;23934;47.998;9.832;2023-07-22T02:31:08;0.00;;;0.00;;
38123;SDS011;23934;47.998;9.832;2023-07-22T02:33:34;0.20;;;0.20;;
38123;SDS011;23934;47.998;9.832;2023-07-22T02:36:00;0.00;;;0.00;;
38123;SDS011;23934;47.998;9.832;2023-07-22T02:38:26;0.05;;;0.05;;
38123;SDS011;23934;47.998;9.832;2023-07-22T02:40:51;2.40;;;1.77;;
38123;SDS011;23934;47.998;9.832;2023-07-22T02:43:17;0.00;;;0.00;;
38123;SDS011;23934;47.998;9.832;2023-07-22T02:45:43;0.00;;;0.00;;
38123;SDS011;23934;47.998;9.832;2023-07-22T02:48:09;0.00;;;0.00;;
38123;SDS011;23934;47.998;9.832;2023-07-22T02:50:35;0.80;;;0.65;;
38123;SDS011;23934;47.998;9.832;2023-07-22T02:53:01;0.00;;;0.00;;
38123;SDS011;23934;47.998;9.832;2023-07-22T02:55:27;0.05;;;0.05;;
38123;SDS011;23934;47.998;9.832;2023-07-22T02:57:53;0.00;;;0.00;;
38123;SDS011;23934;47.998;9.832;2023-07-22T03:00:19;0.00;;;0.00;;
38123;SDS011;23934;47.998;9.832;2023-07-22T03:02:49;0.00;;;0.00;;
38123;SDS011;23934;47.998;9.832;2023-07-22T03:05:15;0.40;;;0.40;;
38123;SDS011;23934;47.998;9.832;2023-07-22T03:07:41;0.65;;;0.52;;
38123;SDS011;23934;47.998;9.832;2023-07-22T03:10:08;0.05;;;0.05;;
38123;SDS011;23934;47.998;9.832;2023-07-22T03:12:34;0.00;;;0.00;;
38123;SDS011;23934;47.998;9.832;2023-07-22T03:15:00;0.13;;;0.13;;
38123;SDS011;23934;47.998;9.832;2023-07-22T03:17:28;0.00;;;0.00;;
38123;SDS011;23934;47.998;9.832;2023-07-22T03:19:54;0.00;;;0.00;;
38123;SDS011;23934;47.998;9.832;2023-07-22T03:22:20;0.10;;;0.10;;
38123;SDS011;23934;47.998;9.832;2023-07-22T03:24:46;0.10;;;0.10;;
38123;SDS011;23934;47.998;9.832;2023-07-22T03:27:13;0.57;;;0.57;;
38123;SDS011;23934;47.998;9.832;2023-07-22T03:29:40;0.00;;;0.00;;
38123;SDS011;23934;47.998;9.832;2023-07-22T03:32:06;0.00;;;0.00;;
38123;SDS011;23934;47.998;9.832;2023-07-22T03:34:33;0.00;;;0.00;;
38123;SDS011;23934;47.998;9.832;2023-07-22T03:36:59;0.00;;;0.00;;
38123;SDS011;23934;47.998;9.832;2023-07-22T03:39:25;0.00;;;0.00;;
38123;SDS011;23934;47.998;9.832;2023-07-22T03:41:51;0.20;;;0.20;;
38123;SDS011;23934;47.998;9.832;2023-07-22T03:44:17;0.20;;;0.20;;
38123;SDS011;23934;47.998;9.832;2023-07-22T03:46:43;0.28;;;0.28;;
38123;SDS011;23934;47.998;9.832;2023-07-22T03:49:09;0.00;;;0.00;;
38123;SDS011;23934;47.998;9.832;2023-07-22T03:51:35;0.00;;;0.00;;
38123;SDS011;23934;47.998;9.832;2023-07-22T03:54:00;0.60;;;0.60;;
38123;SDS011;23934;47.998;9.832;2023-07-22T03:56:26;0.08;;;0.08;;
38123;SDS011;23934;47.998;9.832;2023-07-22T03:58:53;0.22;;;0.22;;
38123;SDS011;23934;47.998;9.832;2023-07-22T04:01:19;0.30;;;0.30;;
38123;SDS011;23934;47.998;9.832;2023-07-22T04:03:45;0.88;;;0.35;;
38123;SDS011;23934;47.998;9.832;2023-07-22T04:06:11;0.00;;;0.00;;
38123;SDS011;23934;47.998;9.832;2023-07-22T04:08:37;0.10;;;0.10;;
38123;SDS011;23934;47.998;9.832;2023-07-22T04:11:03;0.00;;;0.00;;
38123;SDS011;23934;47.998;9.832;2023-07-22T04:13:29;0.00;;;0.00;;
38123;SDS011;23934;47.998;9.832;2023-07-22T04:15:55;0.17;;;0.17;;
38123;SDS011;23934;47.998;9.832;2023-07-22T04:18:21;0.00;;;0.00;;
38123;SDS011;23934;47.998;9.832;2023-07-22T04:20:47;1.17;;;0.45;;
38123;SDS011;23934;47.998;9.832;2023-07-22T04:23:13;0.00;;;0.00;;
38123;SDS011;23934;47.998;9.832;2023-07-22T04:25:43;1.23;;;0.80;;
38123;SDS011;23934;47.998;9.832;2023-07-22T04:28:09;0.30;;;0.30;;
38123;SDS011;23934;47.998;9.832;2023-07-22T04:30:35;0.40;;;0.40;;
38123;SDS011;23934;47.998;9.832;2023-07-22T04:33:02;5.45;;;2.33;;
38123;SDS011;23934;47.998;9.832;2023-07-22T04:35:36;0.00;;;0.00;;
38123;SDS011;23934;47.998;9.832;2023-07-22T04:38:02;0.00;;;0.00;;
38123;SDS011;23934;47.998;9.832;2023-07-22T04:40:28;0.00;;;0.00;;
38123;SDS011;23934;47.998;9.832;2023-07-22T04:42:55;0.00;;;0.00;;
38123;SDS011;23934;47.998;9.832;2023-07-22T04:45:22;0.00;;;0.00;;
38123;SDS011;23934;47.998;9.832;2023-07-22T04:47:51;0.13;;;0.13;;
38123;SDS011;23934;47.998;9.832;2023-07-22T04:50:17;0.00;;;0.00;;
38123;SDS011;23934;47.998;9.832;2023-07-22T04:52:46;0.00;;;0.00;;
38123;SDS011;23934;47.998;9.832;2023-07-22T04:55:13;0.00;;;0.00;;
38123;SDS011;23934;47.998;9.832;2023-07-22T04:57:40;0.00;;;0.00;;
38123;SDS011;23934;47.998;9.832;2023-07-22T05:00:07;0.00;;;0.00;;
38123;SDS011;23934;47.998;9.832;2023-07-22T05:02:39;0.00;;;0.00;;
38123;SDS011;23934;47.998;9.832;2023-07-22T05:05:05;0.00;;;0.00;;
38123;SDS011;23934;47.998;9.832;2023-07-22T05:07:31;0.10;;;0.10;;
38123;SDS011;23934;47.998;9.832;2023-07-22T05:09:57;0.00;;;0.00;;
38123;SDS011;23934;47.998;9.832;2023-07-22T05:12:23;0.22;;;0.22;;
38123;SDS011;23934;47.998;9.832;2023-07-22T05:14:49;0.63;;;0.63;;
38123;SDS011;23934;47.998;9.832;2023-07-22T05:17:15;0.08;;;0.08;;
38123;SDS011;23934;47.998;9.832;2023-07-22T05:19:41;0.35;;;0.35;;
38123;SDS011;23934;47.998;9.832;2023-07-22T05:22:07;0.00;;;0.00;;
38123;SDS011;23934;47.998;9.832;2023-07-22T05:24:33;0.00;;;0.00;;
38123;SDS011;23934;47.998;9.832;2023-07-22T05:26:59;0.00;;;0.00;;
38123;SDS011;23934;47.998;9.832;2023-07-22T05:29:25;0.20;;;0.20;;
38123;SDS011;23934;47.998;9.832;2023-07-22T05:31:51;0.00;;;0.00;;
38123;SDS011;23934;47.998;9.832;2023-07-22T05:34:17;0.70;;;0.70;;
38123;SDS011;23934;47.998;9.832;2023-07-22T05:36:43;0.03;;;0.03;;
38123;SDS011;23934;47.998;9.832;2023-07-22T05:39:09;2.35;;;1.55;;
38123;SDS011;23934;47.998;9.832;2023-07-22T05:41:35;0.00;;;0.00;;
38123;SDS011;23934;47.998;9.832;2023-07-22T05:44:01;0.15;;;0.15;;
38123;SDS011;23934;47.998;9.832;2023-07-22T05:46:27;0.10;;;0.10;;
38123;SDS011;23934;47.998;9.832;2023-07-22T05:48:52;0.00;;;0.00;;
38123;SDS011;23934;47.998;9.832;2023-07-22T05:51:18;1.80;;;1.13;;
38123;SDS011;23934;47.998;9.832;2023-07-22T05:53:44;0.00;;;0.00;;
38123;SDS011;23934;47.998;9.832;2023-07-22T05:56:10;0.00;;;0.00;;
38123;SDS011;23934;47.998;9.832;2023-07-22T05:58:36;0.00;;;0.00;;
38123;SDS011;23934;47.998;9.832;2023-07-22T06:01:02;0.52;;;0.52;;
38123;SDS011;23934;47.998;9.832;2023-07-22T06:03:28;0.22;;;0.20;;
38123;SDS011;23934;47.998;9.832;2023-07-22T06:05:54;0.00;;;0.00;;
38123;SDS011;23934;47.998;9.832;2023-07-22T06:08:20;0.75;;;0.55;;
38123;SDS011;23934;47.998;9.832;2023-07-22T06:10:46;0.00;;;0.00;;
38123;SDS011;23934;47.998;9.832;2023-07-22T06:13:12;0.50;;;0.45;;
38123;SDS011;23934;47.998;9.832;2023-07-22T06:15:38;0.43;;;0.43;;
38123;SDS011;23934;47.998;9.832;2023-07-22T06:18:04;0.00;;;0.00;;
38123;SDS011;23934;47.998;9.832;2023-07-22T06:20:33;0.32;;;0.32;;
38123;SDS011;23934;47.998;9.832;2023-07-22T06:22:59;0.00;;;0.00;;
38123;SDS011;23934;47.998;9.832;2023-07-22T06:25:25;0.45;;;0.45;;
38123;SDS011;23934;47.998;9.832;2023-07-22T06:27:51;1.55;;;1.40;;
38123;SDS011;23934;47.998;9.832;2023-07-22T06:30:19;1.45;;;1.17;;
38123;SDS011;23934;47.998;9.832;2023-07-22T06:32:45;0.05;;;0.05;;
38123;SDS011;23934;47.998;9.832;2023-07-22T06:35:11;0.05;;;0.05;;
38123;SDS011;23934;47.998;9.832;2023-07-22T06:37:37;0.17;;;0.17;;
38123;SDS011;23934;47.998;9.832;2023-07-22T06:40:03;1.58;;;0.50;;
38123;SDS011;23934;47.998;9.832;2023-07-22T06:42:29;0.40;;;0.40;;
38123;SDS011;23934;47.998;9.832;2023-07-22T06:44:55;0.20;;;0.20;;
38123;SDS011;23934;47.998;9.832;2023-07-22T06:47:21;5.75;;;1.42;;
38123;SDS011;23934;47.998;9.832;2023-07-22T06:49:47;1.25;;;1.15;;
38123;SDS011;23934;47.998;9.832;2023-07-22T06:52:13;18.48;;;1.30;;
38123;SDS011;23934;47.998;9.832;2023-07-22T06:54:39;1.33;;;1.17;;
38123;SDS011;23934;47.998;9.832;2023-07-22T06:57:05;1.63;;;1.38;;
38123;SDS011;23934;47.998;9.832;2023-07-22T06:59:31;2.45;;;0.88;;
38123;SDS011;23934;47.998;9.832;2023-07-22T07:01:58;3.92;;;2.58;;
38123;SDS011;23934;47.998;9.832;2023-07-22T07:04:24;1.13;;;1.02;;
38123;SDS011;23934;47.998;9.832;2023-07-22T07:06:50;3.28;;;0.68;;
38123;SDS011;23934;47.998;9.832;2023-07-22T07:09:16;1.90;;;0.85;;
38123;SDS011;23934;47.998;9.832;2023-07-22T07:11:42;2.10;;;1.02;;
38123;SDS011;23934;47.998;9.832;2023-07-22T07:14:08;1.85;;;1.25;;
38123;SDS011;23934;47.998;9.832;2023-07-22T07:16:34;4.25;;;0.85;;
38123;SDS011;23934;47.998;9.832;2023-07-22T07:19:00;1.42;;;1.02;;
38123;SDS011;23934;47.998;9.832;2023-07-22T07:21:26;1.05;;;0.95;;
38123;SDS011;23934;47.998;9.832;2023-07-22T07:23:53;2.25;;;1.25;;
38123;SDS011;23934;47.998;9.832;2023-07-22T07:26:19;5.50;;;2.17;;
38123;SDS011;23934;47.998;9.832;2023-07-22T07:28:45;2.30;;;1.42;;
38123;SDS011;23934;47.998;9.832;2023-07-22T07:31:11;1.15;;;0.90;;
38123;SDS011;23934;47.998;9.832;2023-07-22T07:33:37;4.90;;;1.25;;
38123;SDS011;23934;47.998;9.832;2023-07-22T07:36:03;4.00;;;2.03;;
38123;SDS011;23934;47.998;9.832;2023-07-22T07:38:29;4.93;;;2.20;;
38123;SDS011;23934;47.998;9.832;2023-07-22T07:40:56;2.50;;;1.60;;
38123;SDS011;23934;47.998;9.832;2023-07-22T07:43:22;8.68;;;1.60;;
38123;SDS011;23934;47.998;9.832;2023-07-22T07:45:49;2.50;;;1.23;;
38123;SDS011;23934;47.998;9.832;2023-07-22T07:48:15;5.28;;;1.88;;
38123;SDS011;23934;47.998;9.832;2023-07-22T07:50:42;2.83;;;1.40;;
38123;SDS011;23934;47.998;9.832;2023-07-22T07:53:08;2.53;;;1.08;;
38123;SDS011;23934;47.998;9.832;2023-07-22T07:55:34;3.22;;;1.23;;
38123;SDS011;23934;47.998;9.832;2023-07-22T07:58:00;5.65;;;1.83;;
38123;SDS011;23934;47.998;9.832;2023-07-22T08:00:26;2.58;;;1.25;;
38123;SDS011;23934;47.998;9.832;2023-07-22T08:02:52;9.88;;;1.52;;
38123;SDS011;23934;47.998;9.832;2023-07-22T08:05:18;1.25;;;0.80;;
38123;SDS011;23934;47.998;9.832;2023-07-22T08:07:43;3.40;;;1.17;;
38123;SDS011;23934;47.998;9.832;2023-07-22T08:10:09;3.15;;;1.25;;
38123;SDS011;23934;47.998;9.832;2023-07-22T08:12:36;1.83;;;1.02;;
38123;SDS011;23934;47.998;9.832;2023-07-22T08:15:02;2.60;;;1.23;;
38123;SDS011;23934;47.998;9.832;2023-07-22T08:17:28;3.33;;;1.67;;
38123;SDS011;23934;47.998;9.832;2023-07-22T08:19:54;1.83;;;1.00;;
38123;SDS011;23934;47.998;9.832;2023-07-22T08:22:20;2.15;;;1.10;;
38123;SDS011;23934;47.998;9.832;2023-07-22T08:24:46;1.58;;;1.02;;
38123;SDS011;23934;47.998;9.832;2023-07-22T08:27:12;1.63;;;0.95;;
38123;SDS011;23934;47.998;9.832;2023-07-22T08:29:38;1.33;;;0.80;;
38123;SDS011;23934;47.998;9.832;2023-07-22T08:32:04;8.30;;;1.02;;
38123;SDS011;23934;47.998;9.832;2023-07-22T08:34:30;1.95;;;0.70;;
38123;SDS011;23934;47.998;9.832;2023-07-22T08:36:56;1.17;;;0.82;;
38123;SDS011;23934;47.998;9.832;2023-07-22T08:39:22;0.88;;;0.75;;
38123;SDS011;23934;47.998;9.832;2023-07-22T08:41:49;5.53;;;1.10;;
38123;SDS011;23934;47.998;9.832;2023-07-22T08:44:16;1.65;;;0.98;;
38123;SDS011;23934;47.998;9.832;2023-07-22T08:46:45;2.80;;;0.73;;
38123;SDS011;23934;47.998;9.832;2023-07-22T08:49:12;2.28;;;0.98;;
38123;SDS011;23934;47.998;9.832;2023-07-22T08:51:38;1.95;;;1.02;;
38123;SDS011;23934;47.998;9.832;2023-07-22T08:54:05;2.05;;;0.93;;
38123;SDS011;23934;47.998;9.832;2023-07-22T08:56:31;1.73;;;1.40;;
38123;SDS011;23934;47.998;9.832;2023-07-22T08:58:57;4.93;;;1.13;;
38123;SDS011;23934;47.998;9.832;2023-07-22T09:01:23;1.58;;;1.00;;
38123;SDS011;23934;47.998;9.832;2023-07-22T09:03:49;2.72;;;1.00;;
38123;SDS011;23934;47.998;9.832;2023-07-22T09:06:18;1.77;;;1.08;;
38123;SDS011;23934;47.998;9.832;2023-07-22T09:08:45;1.90;;;1.02;;
38123;SDS011;23934;47.998;9.832;2023-07-22T09:11:11;1.70;;;0.90;;
38123;SDS011;23934;47.998;9.832;2023-07-22T09:13:37;2.15;;;1.10;;
38123;SDS011;23934;47.998;9.832;2023-07-22T09:16:05;1.63;;;0.90;;
38123;SDS011;23934;47.998;9.832;2023-07-22T09:18:34;9.35;;;1.00;;
38123;SDS011;23934;47.998;9.832;2023-07-22T09:21:00;4.70;;;1.30;;
38123;SDS011;23934;47.998;9.832;2023-07-22T09:23:35;1.48;;;1.00;;
38123;SDS011;23934;47.998;9.832;2023-07-22T09:26:14;2.35;;;1.10;;
38123;SDS011;23934;47.998;9.832;2023-07-22T09:28:56;2.45;;;1.42;;
38123;SDS011;23934;47.998;9.832;2023-07-22T09:31:23;3.58;;;1.17;;
38123;SDS011;23934;47.998;9.832;2023-07-22T09:33:49;2.22;;;1.25;;
38123;SDS011;23934;47.998;9.832;2023-07-22T09:36:16;1.95;;;1.13;;
38123;SDS011;23934;47.998;9.832;2023-07-22T09:38:42;2.03;;;0.95;;
38123;SDS011;23934;47.998;9.832;2023-07-22T09:41:08;1.67;;;0.88;;
38123;SDS011;23934;47.998;9.832;2023-07-22T09:43:40;2.58;;;1.05;;
38123;SDS011;23934;47.998;9.832;2023-07-22T09:46:07;1.60;;;0.98;;
38123;SDS011;23934;47.998;9.832;2023-07-22T09:48:43;4.25;;;2.03;;
38123;SDS011;23934;47.998;9.832;2023-07-22T09:51:16;0.90;;;0.73;;
38123;SDS011;23934;47.998;9.832;2023-07-22T09:53:45;1.50;;;0.90;;
38123;SDS011;23934;47.998;9.832;2023-07-22T09:56:11;2.97;;;1.08;;
38123;SDS011;23934;47.998;9.832;2023-07-22T09:58:37;2.75;;;1.30;;
38123;SDS011;23934;47.998;9.832;2023-07-22T10:01:04;1.98;;;1.15;;
38123;SDS011;23934;47.998;9.832;2023-07-22T10:03:30;15.05;;;1.20;;
38123;SDS011;23934;47.998;9.832;2023-07-22T10:05:57;1.63;;;1.00;;
38123;SDS011;23934;47.998;9.832;2023-07-22T10:08:25;1.98;;;1.17;;
38123;SDS011;23934;47.998;9.832;2023-07-22T10:10:53;1.95;;;1.13;;
38123;SDS011;23934;47.998;9.832;2023-07-22T10:13:20;1.60;;;1.00;;
38123;SDS011;23934;47.998;9.832;2023-07-22T10:15:46;1.75;;;1.25;;
38123;SDS011;23934;47.998;9.832;2023-07-22T10:18:13;2.50;;;1.25;;
38123;SDS011;23934;47.998;9.832;2023-07-22T10:20:39;2.55;;;1.35;;
38123;SDS011;23934;47.998;9.832;2023-07-22T10:23:06;1.40;;;1.02;;
38123;SDS011;23934;47.998;9.832;2023-07-22T10:25:38;1.13;;;0.80;;
38123;SDS011;23934;47.998;9.832;2023-07-22T10:28:05;2.00;;;1.00;;
38123;SDS011;23934;47.998;9.832;2023-07-22T10:30:32;1.95;;;1.33;;
38123;SDS011;23934;47.998;9.832;2023-07-22T10:32:58;1.88;;;0.98;;
38123;SDS011;23934;47.998;9.832;2023-07-22T10:40:26;1.75;;;1.02;;
38123;SDS011;23934;47.998;9.832;2023-07-22T10:43:04;2.15;;;1.20;;
38123;SDS011;23934;47.998;9.832;2023-07-22T10:45:39;1.17;;;0.90;;
38123;SDS011;23934;47.998;9.832;2023-07-22T10:48:06;2.28;;;1.10;;
38123;SDS011;23934;47.998;9.832;2023-07-22T10:50:45;2.00;;;1.10;;
38123;SDS011;23934;47.998;9.832;2023-07-22T11:06:30;2.83;;;1.52;;
38123;SDS011;23934;47.998;9.832;2023-07-22T11:08:56;1.63;;;1.08;;
38123;SDS011;23934;47.998;9.832;2023-07-22T11:11:44;2.33;;;1.08;;
38123;SDS011;23934;47.998;9.832;2023-07-22T11:16:40;1.27;;;0.80;;
38123;SDS011;23934;47.998;9.832;2023-07-22T11:19:06;1.75;;;1.33;;
38123;SDS011;23934;47.998;9.832;2023-07-22T11:21:32;1.98;;;1.00;;
38123;SDS011;23934;47.998;9.832;2023-07-22T11:23:58;7.60;;;1.08;;
38123;SDS011;23934;47.998;9.832;2023-07-22T11:26:23;4.20;;;1.00;;
38123;SDS011;23934;47.998;9.832;2023-07-22T11:28:49;3.13;;;1.20;;
38123;SDS011;23934;47.998;9.832;2023-07-22T11:31:18;1.85;;;1.20;;
38123;SDS011;23934;47.998;9.832;2023-07-22T11:33:43;2.80;;;1.50;;
38123;SDS011;23934;47.998;9.832;2023-07-22T11:36:11;1.42;;;1.13;;
38123;SDS011;23934;47.998;9.832;2023-07-22T11:38:38;1.98;;;1.13;;
38123;SDS011;23934;47.998;9.832;2023-07-22T11:41:04;1.67;;;1.17;;
38123;SDS011;23934;47.998;9.832;2023-07-22T11:43:30;3.60;;;1.40;;
38123;SDS011;23934;47.998;9.832;2023-07-22T11:45:56;4.97;;;1.30;;
38123;SDS011;23934;47.998;9.832;2023-07-22T11:48:22;4.43;;;1.85;;
38123;SDS011;23934;47.998;9.832;2023-07-22T11:50:48;2.30;;;1.42;;
38123;SDS011;23934;47.998;9.832;2023-07-22T11:53:14;5.78;;;1.50;;
38123;SDS011;23934;47.998;9.832;2023-07-22T11:55:40;2.45;;;1.35;;
38123;SDS011;23934;47.998;9.832;2023-07-22T11:58:06;2.17;;;1.33;;
38123;SDS011;23934;47.998;9.832;2023-07-22T12:00:34;1.13;;;0.90;;
38123;SDS011;23934;47.998;9.832;2023-07-22T12:03:05;3.53;;;1.33;;
38123;SDS011;23934;47.998;9.832;2023-07-22T12:05:31;2.85;;;1.35;;
38123;SDS011;23934;47.998;9.832;2023-07-22T12:08:00;3.40;;;1.42;;
38123;SDS011;23934;47.998;9.832;2023-07-22T12:10:26;7.78;;;1.83;;
38123;SDS011;23934;47.998;9.832;2023-07-22T12:12:52;2.80;;;1.20;;
38123;SDS011;23934;47.998;9.832;2023-07-22T12:15:19;2.13;;;1.40;;
38123;SDS011;23934;47.998;9.832;2023-07-22T12:17:55;1.95;;;1.20;;
38123;SDS011;23934;47.998;9.832;2023-07-22T12:20:29;2.00;;;1.30;;
38123;SDS011;23934;47.998;9.832;2023-07-22T12:22:55;4.95;;;1.25;;
38123;SDS011;23934;47.998;9.832;2023-07-22T12:25:21;4.28;;;1.55;;
38123;SDS011;23934;47.998;9.832;2023-07-22T12:27:47;2.80;;;1.30;;
38123;SDS011;23934;47.998;9.832;2023-07-22T12:30:14;2.97;;;1.40;;
38123;SDS011;23934;47.998;9.832;2023-07-22T12:32:41;6.05;;;2.10;;
38123;SDS011;23934;47.998;9.832;2023-07-22T12:35:07;4.18;;;1.30;;
38123;SDS011;23934;47.998;9.832;2023-07-22T12:37:33;2.72;;;1.30;;
38123;SDS011;23934;47.998;9.832;2023-07-22T12:39:59;4.60;;;1.00;;
38123;SDS011;23934;47.998;9.832;2023-07-22T12:42:25;4.32;;;2.22;;
38123;SDS011;23934;47.998;9.832;2023-07-22T12:44:51;3.42;;;1.48;;
38123;SDS011;23934;47.998;9.832;2023-07-22T12:47:17;2.92;;;1.10;;
38123;SDS011;23934;47.998;9.832;2023-07-22T12:49:43;1.75;;;1.05;;
38123;SDS011;23934;47.998;9.832;2023-07-22T12:52:09;5.28;;;2.40;;
38123;SDS011;23934;47.998;9.832;2023-07-22T12:54:37;2.58;;;1.60;;
38123;SDS011;23934;47.998;9.832;2023-07-22T12:57:03;2.97;;;1.40;;
38123;SDS011;23934;47.998;9.832;2023-07-22T12:59:29;2.13;;;1.02;;
38123;SDS011;23934;47.998;9.832;2023-07-22T13:01:55;4.22;;;1.48;;
38123;SDS011;23934;47.998;9.832;2023-07-22T13:04:22;3.42;;;1.40;;
38123;SDS011;23934;47.998;9.832;2023-07-22T13:06:49;3.10;;;1.60;;
38123;SDS011;23934;47.998;9.832;2023-07-22T13:09:16;3.53;;;1.58;;
38123;SDS011;23934;47.998;9.832;2023-07-22T13:11:42;3.47;;;1.42;;
38123;SDS011;23934;47.998;9.832;2023-07-22T13:14:08;3.15;;;1.15;;
38123;SDS011;23934;47.998;9.832;2023-07-22T13:16:34;5.07;;;1.30;;
38123;SDS011;23934;47.998;9.832;2023-07-22T13:19:00;4.50;;;1.55;;
38123;SDS011;23934;47.998;9.832;2023-07-22T13:21:28;2.72;;;1.20;;
38123;SDS011;23934;47.998;9.832;2023-07-22T13:23:54;1.90;;;1.15;;
38123;SDS011;23934;47.998;9.832;2023-07-22T13:26:20;4.13;;;1.42;;
38123;SDS011;23934;47.998;9.832;2023-07-22T13:28:46;2.42;;;1.40;;
38123;SDS011;23934;47.998;9.832;2023-07-22T13:31:12;9.95;;;1.75;;
38123;SDS011;23934;47.998;9.832;2023-07-22T13:33:38;7.45;;;1.55;;
38123;SDS011;23934;47.998;9.832;2023-07-22T13:36:04;3.85;;;1.50;;
38123;SDS011;23934;47.998;9.832;2023-07-22T13:38:30;3.33;;;1.63;;
38123;SDS011;23934;47.998;9.832;2023-07-22T13:40:56;2.45;;;1.42;;
38123;SDS011;23934;47.998;9.832;2023-07-22T13:43:22;4.30;;;1.80;;
38123;SDS011;23934;47.998;9.832;2023-07-22T13:45:47;4.63;;;1.52;;
38123;SDS011;23934;47.998;9.832;2023-07-22T13:48:13;2.33;;;1.48;;
38123;SDS011;23934;47.998;9.832;2023-07-22T13:50:39;2.90;;;1.48;;
38123;SDS011;23934;47.998;9.832;2023-07-22T13:53:06;5.28;;;1.63;;
38123;SDS011;23934;47.998;9.832;2023-07-22T13:55:32;3.47;;;1.55;;
38123;SDS011;23934;47.998;9.832;2023-07-22T13:57:58;2.42;;;1.08;;
38123;SDS011;23934;47.998;9.832;2023-07-22T14:00:24;2.83;;;1.30;;
38123;SDS011;23934;47.998;9.832;2023-07-22T14:02:50;3.90;;;1.17;;
38123;SDS011;23934;47.998;9.832;2023-07-22T14:05:16;2.20;;;1.30;;
38123;SDS011;23934;47.998;9.832;2023-07-22T14:07:42;2.83;;;1.63;;
38123;SDS011;23934;47.998;9.832;2023-07-22T14:10:08;3.00;;;1.48;;
38123;SDS011;23934;47.998;9.832;2023-07-22T14:12:34;3.28;;;1.40;;
38123;SDS011;23934;47.998;9.832;2023-07-22T14:15:00;2.08;;;1.42;;
38123;SDS011;23934;47.998;9.832;2023-07-22T14:17:29;3.97;;;2.22;;
38123;SDS011;23934;47.998;9.832;2023-07-22T14:19:57;3.08;;;1.85;;
38123;SDS011;23934;47.998;9.832;2023-07-22T14:22:23;2.85;;;1.38;;
38123;SDS011;23934;47.998;9.832;2023-07-22T14:24:49;3.58;;;1.45;;
38123;SDS011;23934;47.998;9.832;2023-07-22T14:27:15;6.05;;;1.60;;
38123;SDS011;23934;47.998;9.832;2023-07-22T14:29:41;3.20;;;1.50;;
38123;SDS011;23934;47.998;9.832;2023-07-22T14:32:07;2.97;;;1.63;;
38123;SDS011;23934;47.998;9.832;2023-07-22T14:34:33;3.42;;;1.42;;
38123;SDS011;23934;47.998;9.832;2023-07-22T14:37:00;4.22;;;1.75;;
38123;SDS011;23934;47.998;9.832;2023-07-22T14:39:26;2.13;;;1.27;;
38123;SDS011;23934;47.998;9.832;2023-07-22T14:41:52;2.30;;;1.25;;
38123;SDS011;23934;47.998;9.832;2023-07-22T14:44:18;3.30;;;1.98;;
38123;SDS011;23934;47.998;9.832;2023-07-22T14:46:45;3.85;;;1.83;;
38123;SDS011;23934;47.998;9.832;2023-07-22T14:49:11;4.00;;;1.55;;
38123;SDS011;23934;47.998;9.832;2023-07-22T14:51:37;2.85;;;1.25;;
38123;SDS011;23934;47.998;9.832;2023-07-22T14:54:03;3.60;;;1.98;;
38123;SDS011;23934;47.998;9.832;2023-07-22T14:56:29;3.28;;;1.65;;
38123;SDS011;23934;47.998;9.832;2023-07-22T14:58:55;2.67;;;1.10;;
38123;SDS011;23934;47.998;9.832;2023-07-22T15:01:21;3.72;;;1.30;;
38123;SDS011;23934;47.998;9.832;2023-07-22T15:03:47;2.47;;;1.77;;
38123;SDS011;23934;47.998;9.832;2023-07-22T15:06:13;3.50;;;1.60;;